createdAt,value
2022-07-31T00:02:55.011Z,2.67
2022-07-31T00:06:57.034Z,2.45
2022-07-31T00:10:59.206Z,2.42
2022-07-31T00:15:03.252Z,2.45
2022-07-31T00:19:05.395Z,2.55
2022-07-31T00:23:07.454Z,2.40
2022-07-31T00:27:11.594Z,2.50
2022-07-31T00:31:13.805Z,2.33
2022-07-31T00:35:16.401Z,3.05
2022-07-31T00:39:18.461Z,2.88
2022-07-31T00:43:20.550Z,2.40
2022-07-31T00:47:25.514Z,2.90
2022-07-31T00:51:28.062Z,2.40
2022-07-31T00:55:30.268Z,2.50
2022-07-31T00:59:50.563Z,2.50
2022-07-31T01:03:53.493Z,2.90
2022-07-31T01:07:55.510Z,2.60
2022-07-31T01:12:05.880Z,2.38
2022-07-31T01:16:11.058Z,2.50
2022-07-31T01:20:14.201Z,2.78
2022-07-31T01:24:39.990Z,2.53
2022-07-31T01:33:08.446Z,2.80
2022-07-31T01:37:39.887Z,2.78
2022-07-31T01:41:47.374Z,2.55
2022-07-31T01:45:55.510Z,3.03
2022-07-31T01:50:00.004Z,2.60
2022-07-31T01:54:03.383Z,2.35
2022-07-31T01:58:06.927Z,2.63
2022-07-31T02:02:10.007Z,2.70
2022-07-31T02:06:15.455Z,2.13
2022-07-31T02:10:19.736Z,2.90
2022-07-31T02:14:24.888Z,2.63
2022-07-31T02:18:27.613Z,2.35
2022-07-31T02:22:48.357Z,2.17
2022-07-31T02:26:51.628Z,2.10
2022-07-31T02:30:54.280Z,1.90
2022-07-31T02:35:00.466Z,2.20
2022-07-31T02:39:03.576Z,2.10
2022-07-31T02:43:08.096Z,2.78
2022-07-31T02:47:11.979Z,2.35
2022-07-31T02:51:14.586Z,2.42
2022-07-31T02:55:18.702Z,2.55
2022-07-31T02:59:22.341Z,2.35
2022-07-31T03:03:34.915Z,2.90
2022-07-31T03:07:36.979Z,2.58
2022-07-31T03:11:39.718Z,2.10
2022-07-31T03:15:43.087Z,2.08
2022-07-31T03:19:53.778Z,2.50
2022-07-31T03:23:56.168Z,2.20
2022-07-31T03:28:00.110Z,2.00
2022-07-31T03:32:02.934Z,2.20
2022-07-31T03:36:05.745Z,2.10
2022-07-31T03:40:08.971Z,2.20
2022-07-31T03:44:11.599Z,2.40
2022-07-31T03:48:14.398Z,2.33
2022-07-31T03:52:16.529Z,2.50
2022-07-31T03:56:20.022Z,2.35
2022-07-31T04:00:27.072Z,2.38
2022-07-31T04:04:31.131Z,2.20
2022-07-31T04:08:35.858Z,2.15
2022-07-31T04:12:38.165Z,2.40
2022-07-31T04:16:40.204Z,2.55
2022-07-31T04:20:42.817Z,2.30
2022-07-31T04:24:45.744Z,2.60
2022-07-31T04:29:21.192Z,2.42
2022-07-31T04:33:23.273Z,2.40
2022-07-31T04:37:25.385Z,2.35
2022-07-31T04:41:28.141Z,2.50
2022-07-31T04:45:30.855Z,2.85
2022-07-31T04:49:33.260Z,2.53
2022-07-31T04:53:38.408Z,2.28
2022-07-31T04:57:40.866Z,2.25
2022-07-31T05:01:44.687Z,2.30
2022-07-31T05:05:49.944Z,2.30
2022-07-31T05:09:52.601Z,2.50
2022-07-31T05:13:56.810Z,2.35
2022-07-31T05:17:58.823Z,2.42
2022-07-31T05:22:29.621Z,3.17
2022-07-31T05:26:45.745Z,2.20
2022-07-31T05:30:47.746Z,2.33
2022-07-31T05:34:49.925Z,1.92
2022-07-31T05:38:51.995Z,1.90
2022-07-31T05:43:16.590Z,2.00
2022-07-31T05:47:40.103Z,1.80
2022-07-31T05:51:44.679Z,2.15
2022-07-31T05:55:49.635Z,2.10
2022-07-31T06:00:05.972Z,2.10
2022-07-31T06:04:18.834Z,2.10
2022-07-31T06:08:22.860Z,2.53
2022-07-31T06:12:25.870Z,2.20
2022-07-31T06:16:27.917Z,2.40
2022-07-31T06:20:30.671Z,2.60
2022-07-31T06:24:33.534Z,2.72
2022-07-31T06:28:46.561Z,2.03
2022-07-31T06:32:49.910Z,1.98
2022-07-31T06:36:52.016Z,2.00
2022-07-31T06:40:57.119Z,2.00
2022-07-31T06:45:25.076Z,1.88
2022-07-31T06:49:56.126Z,2.00
2022-07-31T06:54:04.011Z,2.05
2022-07-31T06:58:06.148Z,1.95
2022-07-31T07:02:08.688Z,2.08
2022-07-31T07:06:11.261Z,2.15
2022-07-31T07:10:13.598Z,2.00
2022-07-31T07:14:33.700Z,1.90
2022-07-31T07:18:37.057Z,1.70
2022-07-31T07:22:39.137Z,1.83
2022-07-31T07:26:41.995Z,1.63
2022-07-31T07:30:44.241Z,1.70
2022-07-31T07:34:47.730Z,1.88
2022-07-31T07:39:21.865Z,1.75
2022-07-31T07:43:24.621Z,1.30
2022-07-31T07:47:26.709Z,1.60
2022-07-31T07:52:10.089Z,1.42
2022-07-31T07:56:13.944Z,1.65
2022-07-31T08:00:36.280Z,1.77
2022-07-31T08:04:39.546Z,1.63
2022-07-31T08:08:41.749Z,1.77
2022-07-31T08:13:03.709Z,1.65
2022-07-31T08:17:28.743Z,1.60
2022-07-31T08:21:31.737Z,1.65
2022-07-31T08:25:33.802Z,1.77
2022-07-31T08:29:37.915Z,1.60
2022-07-31T08:33:52.893Z,1.88
2022-07-31T08:38:02.175Z,1.88
2022-07-31T08:42:10.032Z,1.85
2022-07-31T08:46:13.191Z,1.63
2022-07-31T08:50:16.278Z,1.60
2022-07-31T08:54:19.679Z,1.67
2022-07-31T08:58:21.765Z,1.50
2022-07-31T09:02:26.581Z,1.60
2022-07-31T09:06:51.707Z,1.58
2022-07-31T09:11:09.513Z,1.70
2022-07-31T09:15:29.593Z,1.80
2022-07-31T09:19:51.702Z,1.65
2022-07-31T09:24:00.213Z,1.70
2022-07-31T09:28:06.993Z,1.50
2022-07-31T09:32:10.045Z,2.90
2022-07-31T09:36:34.875Z,4.38
2022-07-31T09:40:57.136Z,7.05
2022-07-31T09:45:25.631Z,5.30
2022-07-31T09:49:33.953Z,2.60
2022-07-31T09:53:50.245Z,1.90
2022-07-31T09:58:27.505Z,1.80
2022-07-31T10:02:29.941Z,2.30
2022-07-31T10:06:35.180Z,1.90
2022-07-31T10:10:38.447Z,2.05
2022-07-31T10:15:03.025Z,2.00
2022-07-31T10:19:11.379Z,1.85
2022-07-31T10:23:34.937Z,2.20
2022-07-31T10:27:40.725Z,2.10
2022-07-31T10:31:47.514Z,1.60
2022-07-31T10:36:05.031Z,1.60
2022-07-31T10:40:41.791Z,1.50
2022-07-31T10:44:55.411Z,1.70
2022-07-31T10:49:08.438Z,1.42
2022-07-31T10:53:51.172Z,1.63
2022-07-31T10:58:17.384Z,1.52
2022-07-31T11:02:32.762Z,1.40
2022-07-31T11:06:53.855Z,1.20
2022-07-31T11:11:18.563Z,1.40
2022-07-31T11:15:30.666Z,1.40
2022-07-31T11:20:20.393Z,1.30
2022-07-31T11:24:26.246Z,3.35
2022-07-31T11:28:29.149Z,1.53
2022-07-31T11:32:31.158Z,1.30
2022-07-31T11:36:33.199Z,1.52
2022-07-31T11:40:35.315Z,1.20
2022-07-31T11:44:37.362Z,1.40
2022-07-31T11:48:44.881Z,1.20
2022-07-31T11:52:48.075Z,1.30
2022-07-31T11:56:53.427Z,0.90
2022-07-31T12:00:58.002Z,1.15
2022-07-31T12:05:04.258Z,1.60
2022-07-31T12:09:06.637Z,1.40
2022-07-31T12:13:20.345Z,1.38
2022-07-31T12:17:23.022Z,1.50
2022-07-31T12:21:36.381Z,1.45
2022-07-31T12:25:46.348Z,1.20
2022-07-31T12:29:48.397Z,1.20
2022-07-31T12:33:50.457Z,1.20
2022-07-31T12:37:53.866Z,1.40
2022-07-31T12:41:56.735Z,1.42
2022-07-31T12:46:02.817Z,1.40
2022-07-31T12:50:05.277Z,1.42
2022-07-31T12:54:08.907Z,1.30
2022-07-31T12:58:11.009Z,1.42
2022-07-31T13:02:13.219Z,1.30
2022-07-31T13:06:15.281Z,1.60
2022-07-31T13:10:21.145Z,1.55
2022-07-31T13:14:26.443Z,1.35
2022-07-31T13:18:30.038Z,1.40
2022-07-31T13:22:32.322Z,1.48
2022-07-31T13:26:38.254Z,1.60
2022-07-31T13:30:40.389Z,1.43
2022-07-31T13:34:42.483Z,1.65
2022-07-31T13:38:44.571Z,1.35
2022-07-31T13:42:46.580Z,1.48
2022-07-31T13:46:48.578Z,1.20
2022-07-31T13:50:50.607Z,1.13
2022-07-31T13:54:52.667Z,1.00
2022-07-31T13:58:55.199Z,1.38
2022-07-31T14:02:58.015Z,1.40
2022-07-31T14:07:04.223Z,1.60
2022-07-31T14:11:13.694Z,1.45
2022-07-31T14:15:18.312Z,1.40
2022-07-31T14:19:20.904Z,1.13
2022-07-31T14:23:31.632Z,1.20
2022-07-31T14:27:38.666Z,1.00
2022-07-31T14:31:40.741Z,1.25
2022-07-31T14:35:42.836Z,1.20
2022-07-31T14:39:44.979Z,1.30
2022-07-31T14:43:46.991Z,1.30
2022-07-31T14:47:50.182Z,1.10
2022-07-31T14:51:52.412Z,1.17
2022-07-31T14:55:54.455Z,1.10
2022-07-31T15:00:12.778Z,1.60
2022-07-31T15:04:14.854Z,1.38
2022-07-31T15:08:16.935Z,1.40
2022-07-31T15:12:19.780Z,1.38
2022-07-31T15:16:21.847Z,1.27
2022-07-31T15:20:30.093Z,3.38
2022-07-31T15:24:35.476Z,6.13
2022-07-31T15:28:37.643Z,2.08
2022-07-31T15:32:40.254Z,5.78
2022-07-31T15:36:42.350Z,1.60
2022-07-31T15:40:46.963Z,1.20
2022-07-31T15:44:49.155Z,1.20
2022-07-31T15:48:52.147Z,1.00
2022-07-31T15:52:54.286Z,1.20
2022-07-31T15:56:56.650Z,1.30
2022-07-31T16:00:58.879Z,1.05
2022-07-31T16:05:11.776Z,1.10
2022-07-31T16:09:24.025Z,1.20
2022-07-31T16:13:26.161Z,1.10
2022-07-31T16:17:37.700Z,1.00
2022-07-31T16:21:40.591Z,1.17
2022-07-31T16:25:42.607Z,1.30
2022-07-31T16:29:59.793Z,1.50
2022-07-31T16:34:04.291Z,1.00
2022-07-31T16:38:07.523Z,1.10
2022-07-31T16:42:09.554Z,1.10
2022-07-31T16:46:11.808Z,1.20
2022-07-31T16:50:13.872Z,1.25
2022-07-31T16:54:16.403Z,0.95
2022-07-31T16:58:18.753Z,1.10
2022-07-31T17:02:27.376Z,1.10
2022-07-31T17:06:35.171Z,1.23
2022-07-31T17:10:39.592Z,1.20
2022-07-31T17:14:43.803Z,1.10
2022-07-31T17:18:52.611Z,1.15
2022-07-31T17:22:56.725Z,1.40
2022-07-31T17:26:59.687Z,1.48
2022-07-31T17:31:04.903Z,1.40
2022-07-31T17:35:08.052Z,1.33
2022-07-31T17:39:16.857Z,1.20
2022-07-31T17:43:19.502Z,1.50
2022-07-31T17:47:30.185Z,1.50
2022-07-31T17:51:32.305Z,1.40
2022-07-31T17:55:34.342Z,1.40
2022-07-31T17:59:36.385Z,1.50
2022-07-31T18:03:38.419Z,1.33
2022-07-31T18:07:40.537Z,1.50
2022-07-31T18:11:42.574Z,1.20
2022-07-31T18:15:44.602Z,1.13
2022-07-31T18:19:47.706Z,1.17
2022-07-31T18:23:49.749Z,1.20
2022-07-31T18:27:52.427Z,1.10
2022-07-31T18:31:54.506Z,1.17
2022-07-31T18:35:56.548Z,1.17
2022-07-31T18:39:59.086Z,1.30
2022-07-31T18:44:04.588Z,0.93
2022-07-31T18:48:07.014Z,1.10
2022-07-31T18:52:12.691Z,1.05
2022-07-31T18:56:17.808Z,1.10
2022-07-31T19:00:19.887Z,1.23
2022-07-31T19:04:22.437Z,1.00
2022-07-31T19:08:24.798Z,1.17
2022-07-31T19:12:26.820Z,1.08
2022-07-31T19:16:29.211Z,0.93
2022-07-31T19:20:56.356Z,0.90
2022-07-31T19:24:54.770Z,1.02
2022-07-31T19:28:56.934Z,0.90
2022-07-31T19:32:59.016Z,1.20
2022-07-31T19:37:01.085Z,1.40
2022-07-31T19:41:03.963Z,1.42
2022-07-31T19:45:06.426Z,1.20
2022-07-31T19:49:08.580Z,1.35
2022-07-31T19:53:10.689Z,1.40
2022-07-31T19:57:13.913Z,1.38
2022-07-31T20:01:16.646Z,1.25
2022-07-31T20:05:18.721Z,1.40
2022-07-31T20:09:21.813Z,1.20
2022-07-31T20:13:24.817Z,1.40
2022-07-31T20:17:27.208Z,1.23
2022-07-31T20:21:34.924Z,1.17
2022-07-31T20:25:39.212Z,1.40
2022-07-31T20:29:41.298Z,1.52
2022-07-31T20:33:48.906Z,1.50
2022-07-31T20:38:00.631Z,1.38
2022-07-31T20:42:03.288Z,1.30
2022-07-31T20:46:05.669Z,1.20
2022-07-31T20:50:09.310Z,1.55
2022-07-31T20:54:12.028Z,1.40
2022-07-31T20:58:14.146Z,1.40
2022-07-31T21:02:16.204Z,1.20
2022-07-31T21:06:21.947Z,1.40
2022-07-31T21:10:28.172Z,1.20
2022-07-31T21:14:31.517Z,1.30
2022-07-31T21:18:34.924Z,1.33
2022-07-31T21:22:37.907Z,1.15
2022-07-31T21:26:41.614Z,1.40
2022-07-31T21:30:43.803Z,1.30
2022-07-31T21:34:46.062Z,1.30
2022-07-31T21:38:48.317Z,1.17
2022-07-31T21:42:55.133Z,1.20
2022-07-31T21:47:01.810Z,1.27
2022-07-31T21:51:06.055Z,1.25
2022-07-31T21:55:08.675Z,1.30
2022-07-31T21:59:13.243Z,1.20
2022-07-31T22:03:15.352Z,1.45
2022-07-31T22:07:32.604Z,1.38
2022-07-31T22:11:35.747Z,1.33
2022-07-31T22:15:52.672Z,1.20
2022-07-31T22:20:00.554Z,1.20
2022-07-31T22:24:03.236Z,1.17
2022-07-31T22:28:05.951Z,1.08
2022-07-31T22:32:08.769Z,1.00
2022-07-31T22:36:11.203Z,1.00
2022-07-31T22:40:14.836Z,1.00
2022-07-31T22:44:19.015Z,1.60
2022-07-31T22:48:26.771Z,0.90
2022-07-31T22:52:34.503Z,1.00
2022-07-31T22:56:38.523Z,1.00
2022-07-31T23:00:41.928Z,0.90
2022-07-31T23:04:44.101Z,1.20
2022-07-31T23:08:46.137Z,0.80
2022-07-31T23:12:52.443Z,0.93
2022-07-31T23:16:54.521Z,0.90
2022-07-31T23:20:58.057Z,1.33
2022-07-31T23:25:00.474Z,0.80
2022-07-31T23:29:03.072Z,0.90
2022-07-31T23:33:05.103Z,0.82
2022-07-31T23:37:09.206Z,0.85
2022-07-31T23:41:11.727Z,0.90
2022-07-31T23:45:13.823Z,0.90
2022-07-31T23:49:17.753Z,0.80
2022-07-31T23:53:19.891Z,0.73
2022-07-31T23:57:21.974Z,1.20
